createdAt,value
2023-09-06T00:01:38.385Z,73.00
2023-09-06T00:04:07.135Z,73.20
2023-09-06T00:06:35.557Z,73.30
2023-09-06T00:09:04.237Z,73.60
2023-09-06T00:11:34.789Z,73.60
2023-09-06T00:14:04.332Z,73.00
2023-09-06T00:16:32.622Z,72.70
2023-09-06T00:19:01.515Z,72.20
2023-09-06T00:21:30.614Z,72.10
2023-09-06T00:23:59.323Z,72.80
2023-09-06T00:26:27.759Z,73.60
2023-09-06T00:28:59.060Z,74.20
2023-09-06T00:31:27.308Z,74.80
2023-09-06T00:33:55.658Z,74.80
2023-09-06T00:36:23.931Z,74.60
2023-09-06T00:38:52.206Z,74.30
2023-09-06T00:41:21.292Z,74.10
2023-09-06T00:43:49.467Z,74.40
2023-09-06T00:46:20.165Z,74.20
2023-09-06T00:48:51.504Z,74.20
2023-09-06T00:51:21.260Z,74.10
2023-09-06T00:53:50.248Z,74.50
2023-09-06T00:56:19.388Z,74.80
2023-09-06T00:58:47.949Z,74.70
2023-09-06T01:01:17.644Z,74.40
2023-09-06T01:03:47.354Z,74.30
2023-09-06T01:06:21.683Z,74.70
2023-09-06T01:08:54.733Z,74.70
2023-09-06T01:11:24.777Z,74.30
2023-09-06T01:13:54.779Z,74.10
2023-09-06T01:16:27.998Z,73.90
2023-09-06T01:18:58.686Z,73.30
2023-09-06T01:21:29.782Z,73.80
2023-09-06T01:24:01.475Z,74.30
2023-09-06T01:26:29.839Z,74.20
2023-09-06T01:28:58.234Z,74.00
2023-09-06T01:31:27.859Z,73.90
2023-09-06T01:33:56.208Z,73.90
2023-09-06T01:36:24.494Z,74.20
2023-09-06T01:38:53.287Z,74.20
2023-09-06T01:41:22.830Z,74.30
2023-09-06T01:43:55.546Z,74.50
2023-09-06T01:46:24.979Z,74.50
2023-09-06T01:48:53.362Z,74.50
2023-09-06T01:51:24.722Z,74.40
2023-09-06T01:53:52.874Z,74.10
2023-09-06T01:56:22.370Z,73.70
2023-09-06T01:58:50.624Z,74.00
2023-09-06T02:01:21.017Z,74.10
2023-09-06T02:03:49.743Z,73.90
2023-09-06T02:06:19.104Z,74.20
2023-09-06T02:08:47.343Z,74.30
2023-09-06T02:11:17.093Z,74.40
2023-09-06T02:13:46.675Z,74.90
2023-09-06T02:16:14.876Z,75.40
2023-09-06T02:18:43.296Z,74.90
2023-09-06T02:21:11.500Z,75.30
2023-09-06T02:23:39.645Z,75.70
2023-09-06T02:26:07.822Z,76.40
2023-09-06T02:28:36.541Z,76.30
2023-09-06T02:31:06.364Z,76.70
2023-09-06T02:33:34.597Z,76.40
2023-09-06T02:36:02.845Z,76.60
2023-09-06T02:38:31.151Z,76.80
2023-09-06T02:40:59.412Z,76.50
2023-09-06T02:43:27.630Z,76.30
2023-09-06T02:45:56.028Z,76.20
2023-09-06T02:48:30.740Z,76.20
2023-09-06T02:51:00.488Z,76.30
2023-09-06T02:53:32.368Z,76.50
2023-09-06T02:56:02.888Z,76.30
2023-09-06T02:58:32.759Z,75.80
2023-09-06T03:01:07.219Z,75.40
2023-09-06T03:03:37.333Z,75.50
2023-09-06T03:06:06.233Z,75.10
2023-09-06T03:08:37.891Z,74.90
2023-09-06T03:11:07.120Z,74.50
2023-09-06T03:13:35.764Z,74.40
2023-09-06T03:16:05.941Z,75.20
2023-09-06T03:18:34.263Z,75.70
2023-09-06T03:21:06.087Z,76.20
2023-09-06T03:23:35.165Z,76.10
2023-09-06T03:26:07.083Z,75.60
2023-09-06T03:28:42.189Z,75.70
2023-09-06T03:31:15.131Z,75.80
2023-09-06T03:33:43.495Z,75.30
2023-09-06T03:36:15.964Z,75.40
2023-09-06T03:38:44.563Z,75.20
2023-09-06T03:41:12.933Z,75.00
2023-09-06T03:43:41.163Z,75.50
2023-09-06T03:46:14.199Z,75.40
2023-09-06T03:48:44.333Z,75.10
2023-09-06T03:51:15.404Z,75.30
2023-09-06T03:53:44.365Z,74.80
2023-09-06T03:56:13.748Z,74.70
2023-09-06T03:58:45.656Z,74.70
2023-09-06T04:01:16.947Z,74.80
2023-09-06T04:03:47.730Z,74.90
2023-09-06T04:06:18.070Z,74.60
2023-09-06T04:08:47.610Z,74.50
2023-09-06T04:11:15.904Z,73.90
2023-09-06T04:13:45.742Z,74.20
2023-09-06T04:16:16.476Z,74.30
2023-09-06T04:18:45.900Z,73.50
2023-09-06T04:21:14.523Z,73.60
2023-09-06T04:23:46.324Z,73.40
2023-09-06T04:26:18.273Z,73.20
2023-09-06T04:28:46.484Z,72.90
2023-09-06T04:31:19.528Z,73.00
2023-09-06T04:33:49.531Z,72.50
2023-09-06T04:36:22.862Z,72.60
2023-09-06T04:38:57.843Z,72.50
2023-09-06T04:41:27.068Z,72.50
2023-09-06T04:44:00.249Z,72.70
2023-09-06T04:46:29.791Z,73.30
2023-09-06T04:52:58.464Z,74.50
2023-09-06T04:55:28.582Z,75.90
2023-09-06T04:57:56.813Z,76.70
2023-09-06T05:00:25.880Z,77.30
2023-09-06T05:02:54.141Z,77.50
2023-09-06T05:05:23.434Z,77.60
2023-09-06T05:07:52.050Z,78.90
2023-09-06T05:10:20.716Z,78.60
2023-09-06T05:12:50.314Z,76.60
2023-09-06T05:15:18.656Z,76.10
2023-09-06T05:17:47.603Z,74.30
2023-09-06T05:20:27.868Z,73.90
2023-09-06T05:22:59.079Z,72.70
2023-09-06T05:25:28.138Z,72.20
2023-09-06T05:27:59.577Z,72.30
2023-09-06T05:30:29.582Z,74.30
2023-09-06T05:32:58.255Z,74.20
2023-09-06T05:35:28.911Z,74.40
2023-09-06T05:37:57.945Z,74.30
2023-09-06T05:40:27.520Z,73.70
2023-09-06T05:42:58.270Z,73.40
2023-09-06T05:45:27.669Z,73.20
2023-09-06T05:47:56.737Z,73.30
2023-09-06T05:50:25.001Z,72.30
2023-09-06T05:52:53.614Z,72.50
2023-09-06T05:55:21.782Z,72.40
2023-09-06T05:57:52.498Z,69.20
2023-09-06T06:00:23.771Z,71.70
2023-09-06T06:02:56.961Z,69.90
2023-09-06T06:05:25.366Z,71.20
2023-09-06T06:07:53.641Z,72.00
2023-09-06T06:10:21.771Z,71.60
2023-09-06T06:12:49.907Z,72.60
2023-09-06T06:15:18.072Z,70.70
2023-09-06T06:17:47.895Z,71.90
2023-09-06T06:20:21.031Z,71.50
2023-09-06T06:22:55.929Z,70.00
2023-09-06T06:25:24.149Z,69.90
2023-09-06T06:27:53.324Z,68.50
2023-09-06T06:30:21.677Z,69.70
2023-09-06T06:32:51.234Z,70.20
2023-09-06T06:35:19.522Z,69.00
2023-09-06T06:37:51.104Z,69.80
2023-09-06T06:40:19.476Z,70.00
2023-09-06T06:42:47.738Z,69.00
2023-09-06T06:45:18.291Z,69.10
2023-09-06T06:47:46.828Z,68.90
2023-09-06T06:50:16.435Z,69.00
2023-09-06T06:52:46.143Z,68.10
2023-09-06T06:55:14.455Z,67.10
2023-09-06T06:57:43.182Z,68.60
2023-09-06T07:00:12.830Z,68.30
2023-09-06T07:02:41.176Z,68.00
2023-09-06T07:05:10.139Z,68.10
2023-09-06T07:07:40.182Z,68.30
2023-09-06T07:10:09.948Z,67.80
2023-09-06T07:12:38.358Z,67.00
2023-09-06T07:15:07.982Z,67.70
2023-09-06T07:17:36.302Z,67.40
2023-09-06T07:20:08.470Z,67.70
2023-09-06T07:22:37.281Z,67.60
2023-09-06T07:25:09.309Z,67.60
2023-09-06T07:27:37.439Z,67.00
2023-09-06T07:30:07.824Z,67.40
2023-09-06T07:32:36.022Z,67.10
2023-09-06T07:35:05.204Z,66.80
2023-09-06T07:37:33.487Z,66.30
2023-09-06T07:40:01.855Z,67.10
2023-09-06T07:42:31.412Z,67.20
2023-09-06T07:44:59.858Z,67.20
2023-09-06T07:47:28.829Z,66.00
2023-09-06T07:49:57.240Z,67.10
2023-09-06T07:52:25.502Z,67.00
2023-09-06T07:54:53.681Z,67.20
2023-09-06T07:57:21.884Z,66.60
2023-09-06T07:59:51.474Z,67.20
2023-09-06T08:02:19.783Z,65.10
2023-09-06T08:04:48.566Z,65.50
2023-09-06T08:07:16.899Z,66.00
2023-09-06T08:09:45.094Z,66.20
2023-09-06T08:12:13.516Z,66.40
2023-09-06T08:14:43.266Z,66.20
2023-09-06T08:17:13.978Z,67.10
2023-09-06T08:19:42.158Z,65.80
2023-09-06T08:22:10.304Z,66.70
2023-09-06T08:24:40.916Z,66.60
2023-09-06T08:27:10.689Z,66.00
2023-09-06T08:29:38.881Z,66.50
2023-09-06T08:32:09.635Z,66.90
2023-09-06T08:34:39.367Z,66.20
2023-09-06T08:37:08.452Z,66.80
2023-09-06T08:39:36.865Z,66.30
2023-09-06T08:42:07.585Z,66.20
2023-09-06T08:44:36.630Z,66.10
2023-09-06T08:47:09.243Z,66.30
2023-09-06T08:49:39.621Z,66.50
2023-09-06T08:52:10.737Z,66.30
2023-09-06T08:54:39.124Z,66.20
2023-09-06T08:57:07.475Z,65.10
2023-09-06T08:59:36.124Z,66.30
2023-09-06T09:02:05.505Z,66.50
2023-09-06T09:04:34.041Z,66.40
2023-09-06T09:07:04.929Z,66.30
2023-09-06T09:09:33.210Z,66.30
2023-09-06T09:12:01.417Z,66.20
2023-09-06T10:22:45.506Z,70.40
2023-09-06T10:25:17.895Z,68.40
2023-09-06T10:27:51.070Z,67.90
2023-09-06T10:30:30.329Z,68.00
2023-09-06T10:32:59.275Z,67.50
2023-09-06T10:35:31.284Z,67.50
2023-09-06T10:38:12.896Z,67.60
2023-09-06T10:41:11.631Z,67.20
2023-09-06T10:44:04.599Z,67.40
2023-09-06T10:46:33.790Z,67.70
2023-09-06T10:49:22.529Z,67.60
2023-09-06T10:52:01.845Z,67.50
2023-09-06T10:54:36.791Z,68.00
2023-09-06T10:57:07.016Z,67.50
2023-09-06T10:59:39.181Z,67.20
2023-09-06T11:02:26.561Z,67.20
2023-09-06T11:05:07.887Z,67.30
2023-09-06T11:07:49.432Z,66.80
2023-09-06T11:10:24.517Z,66.70
2023-09-06T11:12:55.146Z,66.20
2023-09-06T11:15:24.182Z,66.10
2023-09-06T11:17:53.499Z,65.30
2023-09-06T11:20:23.516Z,64.60
2023-09-06T11:22:52.691Z,64.00
2023-09-06T11:25:23.386Z,63.50
2023-09-06T11:27:52.526Z,63.10
2023-09-06T11:30:23.010Z,62.70
2023-09-06T11:32:51.840Z,62.60
2023-09-06T11:35:23.774Z,62.40
2023-09-06T11:37:53.877Z,62.40
2023-09-06T11:40:28.907Z,62.50
2023-09-06T11:42:59.561Z,62.50
2023-09-06T11:45:30.185Z,62.60
2023-09-06T11:48:00.865Z,62.50
2023-09-06T11:50:32.111Z,62.40
2023-09-06T11:53:05.856Z,62.20
2023-09-06T11:55:39.192Z,62.20
2023-09-06T11:58:17.861Z,62.10
2023-09-06T12:00:52.158Z,62.20
2023-09-06T12:03:23.343Z,62.20
2023-09-06T12:05:54.678Z,62.20
2023-09-06T12:08:25.579Z,62.20
2023-09-06T12:11:07.439Z,62.10
2023-09-06T12:13:38.718Z,61.90
2023-09-06T12:16:09.481Z,61.80
2023-09-06T12:18:39.538Z,61.60
2023-09-06T12:21:08.958Z,61.50
2023-09-06T12:23:39.595Z,61.00
2023-09-06T12:26:09.788Z,60.60
2023-09-06T12:28:39.053Z,60.50
2023-09-06T12:33:40.713Z,60.20
2023-09-06T12:36:12.080Z,60.40
2023-09-06T12:38:40.572Z,60.40
2023-09-06T12:41:10.351Z,60.80
2023-09-06T12:43:38.858Z,61.00
2023-09-06T12:46:08.101Z,61.30
2023-09-06T12:48:37.197Z,61.30
2023-09-06T12:51:08.116Z,61.30
2023-09-06T12:53:37.477Z,61.20
2023-09-06T12:56:09.825Z,61.20
2023-09-06T12:58:41.535Z,61.20
2023-09-06T13:01:11.903Z,61.10
2023-09-06T13:03:41.104Z,61.30
2023-09-06T13:06:10.244Z,61.30
2023-09-06T13:08:39.202Z,61.30
2023-09-06T13:11:08.411Z,61.50
2023-09-06T13:13:38.368Z,61.80
2023-09-06T13:16:09.361Z,62.10
2023-09-06T13:18:39.846Z,62.20
2023-09-06T13:21:09.051Z,62.30
2023-09-06T13:23:37.851Z,62.40
2023-09-06T13:26:06.906Z,62.40
2023-09-06T13:28:36.176Z,62.60
2023-09-06T13:31:06.401Z,62.50
2023-09-06T13:33:37.656Z,62.40
2023-09-06T13:36:07.578Z,62.40
2023-09-06T13:38:36.757Z,62.40
2023-09-06T13:41:05.570Z,62.40
2023-09-06T13:43:34.364Z,62.40
2023-09-06T13:46:03.606Z,62.30
2023-09-06T13:48:31.941Z,62.10
2023-09-06T13:51:01.711Z,62.20
2023-09-06T13:53:30.553Z,62.20
2023-09-06T13:55:59.090Z,62.20
2023-09-06T13:58:28.450Z,62.00
2023-09-06T14:00:57.929Z,62.00
2023-09-06T14:03:28.765Z,61.90
2023-09-06T14:05:57.467Z,61.30
2023-09-06T14:08:27.496Z,61.70
2023-09-06T14:10:57.420Z,61.70
2023-09-06T14:13:25.939Z,61.70
2023-09-06T14:15:54.905Z,61.70
2023-09-06T14:18:24.081Z,61.80
2023-09-06T14:20:54.151Z,61.60
2023-09-06T14:23:24.021Z,61.50
2023-09-06T14:25:53.964Z,61.60
2023-09-06T14:28:22.324Z,61.70
2023-09-06T14:30:50.737Z,61.30
2023-09-06T14:33:19.520Z,61.60
2023-09-06T14:35:48.673Z,61.60
2023-09-06T14:38:18.567Z,61.60
2023-09-06T14:40:47.410Z,61.50
2023-09-06T14:43:17.827Z,61.50
2023-09-06T14:45:46.601Z,61.50
2023-09-06T14:48:16.118Z,61.50
2023-09-06T14:50:45.188Z,61.20
2023-09-06T14:53:14.196Z,61.00
2023-09-06T14:55:42.970Z,61.40
2023-09-06T14:58:11.837Z,61.30
2023-09-06T15:00:42.293Z,61.30
2023-09-06T15:03:11.236Z,61.30
2023-09-06T15:05:43.961Z,61.20
2023-09-06T15:08:13.369Z,61.30
2023-09-06T15:10:42.101Z,61.30
2023-09-06T15:13:13.356Z,61.30
2023-09-06T15:15:45.356Z,61.20
2023-09-06T15:18:14.159Z,60.90
2023-09-06T15:20:42.931Z,60.50
2023-09-06T15:23:11.830Z,61.10
2023-09-06T15:25:41.347Z,60.80
2023-09-06T15:28:10.105Z,60.90
2023-09-06T15:30:38.725Z,60.90
2023-09-06T15:33:08.943Z,60.90
2023-09-06T15:35:41.312Z,60.90
2023-09-06T15:38:12.441Z,61.00
2023-09-06T15:40:40.910Z,61.10
2023-09-06T15:43:09.694Z,61.00
2023-09-06T15:45:39.668Z,61.00
2023-09-06T15:48:10.919Z,60.30
2023-09-06T15:50:40.280Z,61.00
2023-09-06T15:53:09.186Z,60.90
2023-09-06T15:55:38.404Z,60.60
2023-09-06T15:58:06.795Z,60.60
2023-09-06T16:00:35.826Z,60.80
2023-09-06T16:03:07.103Z,60.50
2023-09-06T16:05:37.314Z,60.90
2023-09-06T16:08:06.341Z,60.70
2023-09-06T16:10:34.643Z,60.40
2023-09-06T16:13:04.117Z,60.50
2023-09-06T16:15:32.765Z,59.90
2023-09-06T16:18:01.775Z,60.80
2023-09-06T16:20:31.034Z,61.00
2023-09-06T16:23:01.733Z,61.40
2023-09-06T16:25:30.033Z,60.30
2023-09-06T16:27:58.221Z,61.70
2023-09-06T16:30:26.696Z,61.70
2023-09-06T16:32:55.166Z,61.00
2023-09-06T16:35:23.489Z,62.40
2023-09-06T16:37:51.937Z,62.60
2023-09-06T16:40:23.454Z,62.70
2023-09-06T16:42:52.742Z,62.80
2023-09-06T16:45:21.774Z,63.00
2023-09-06T16:47:51.712Z,63.20
2023-09-06T16:50:20.976Z,63.20
2023-09-06T16:52:51.275Z,63.30
2023-09-06T16:55:21.237Z,63.30
2023-09-06T16:57:51.914Z,63.40
2023-09-06T17:00:22.824Z,63.30
2023-09-06T17:02:53.524Z,63.50
2023-09-06T17:05:22.005Z,63.40
2023-09-06T17:07:52.322Z,63.50
2023-09-06T17:10:22.148Z,63.10
2023-09-06T17:12:51.231Z,63.70
2023-09-06T17:15:22.685Z,63.30
2023-09-06T17:17:51.963Z,63.20
2023-09-06T17:20:22.857Z,62.20
2023-09-06T17:22:52.204Z,61.70
2023-09-06T17:25:22.088Z,62.60
2023-09-06T17:27:50.535Z,63.40
2023-09-06T17:30:23.047Z,62.20
2023-09-06T17:33:12.220Z,62.60
2023-09-06T17:35:41.695Z,62.90
2023-09-06T17:38:13.187Z,62.80
2023-09-06T17:40:45.705Z,62.80
2023-09-06T17:43:14.944Z,63.10
2023-09-06T17:45:43.254Z,63.60
2023-09-06T17:48:14.993Z,63.40
2023-09-06T17:50:44.658Z,64.00
2023-09-06T17:53:15.048Z,63.50
2023-09-06T17:55:46.240Z,64.20
2023-09-06T17:58:14.860Z,63.90
2023-09-06T18:00:45.661Z,64.20
2023-09-06T18:03:16.241Z,64.20
2023-09-06T18:05:47.451Z,64.60
2023-09-06T18:08:16.716Z,64.80
2023-09-06T18:10:46.463Z,64.50
2023-09-06T18:13:15.389Z,64.40
2023-09-06T18:15:43.866Z,64.40
2023-09-06T18:18:14.525Z,64.50
2023-09-06T18:20:44.203Z,64.70
2023-09-06T18:23:13.599Z,64.80
2023-09-06T18:25:42.631Z,64.60
2023-09-06T18:28:12.151Z,64.70
2023-09-06T18:30:45.757Z,64.50
2023-09-06T18:33:15.029Z,64.60
2023-09-06T18:35:46.366Z,65.10
2023-09-06T18:38:15.548Z,65.00
2023-09-06T18:40:44.017Z,65.20
2023-09-06T18:43:13.790Z,65.80
2023-09-06T18:45:42.207Z,65.90
2023-09-06T18:48:16.252Z,66.10
2023-09-06T18:50:46.878Z,67.70
2023-09-06T18:53:15.427Z,66.40
2023-09-06T18:55:44.782Z,68.40
2023-09-06T18:58:15.602Z,68.10
2023-09-06T19:00:44.076Z,65.70
2023-09-06T19:03:14.554Z,65.80
2023-09-06T19:05:44.054Z,65.90
2023-09-06T19:08:16.625Z,65.40
2023-09-06T19:10:45.394Z,66.00
2023-09-06T19:13:19.418Z,65.70
2023-09-06T19:15:49.578Z,65.50
2023-09-06T19:18:18.232Z,65.20
2023-09-06T19:20:46.558Z,65.50
2023-09-06T19:23:20.344Z,66.10
2023-09-06T19:25:55.191Z,66.50
2023-09-06T19:28:26.471Z,66.80
2023-09-06T19:30:58.799Z,66.90
2023-09-06T19:33:28.396Z,67.10
2023-09-06T19:35:57.132Z,67.30
2023-09-06T19:38:25.392Z,66.50
2023-09-06T19:40:55.301Z,66.90
2023-09-06T19:43:25.704Z,67.00
2023-09-06T19:45:57.220Z,66.70
2023-09-06T19:48:26.459Z,66.60
2023-09-06T19:50:55.234Z,67.00
2023-09-06T19:53:23.823Z,66.90
2023-09-06T19:55:52.975Z,66.40
2023-09-06T19:58:21.552Z,66.20
2023-09-06T20:00:51.108Z,66.00
2023-09-06T20:03:19.786Z,66.40
2023-09-06T20:05:48.839Z,66.40
2023-09-06T20:08:17.098Z,66.70
2023-09-06T20:10:50.539Z,67.30
2023-09-06T20:13:19.354Z,67.50
2023-09-06T20:15:47.535Z,67.90
2023-09-06T20:18:17.196Z,68.20
2023-09-06T20:20:45.394Z,68.80
2023-09-06T20:23:14.100Z,68.90
2023-09-06T20:25:42.645Z,69.00
2023-09-06T20:28:11.268Z,69.40
2023-09-06T20:30:40.549Z,69.30
2023-09-06T20:33:09.167Z,69.50
2023-09-06T20:35:40.853Z,69.90
2023-09-06T20:38:09.749Z,69.90
2023-09-06T20:40:38.589Z,70.10
2023-09-06T20:43:07.664Z,70.20
2023-09-06T20:45:37.808Z,70.40
2023-09-06T20:48:08.933Z,70.50
2023-09-06T20:50:40.451Z,70.40
2023-09-06T20:53:09.120Z,70.40
2023-09-06T20:55:38.558Z,70.30
2023-09-06T20:58:08.376Z,70.60
2023-09-06T21:00:37.305Z,70.20
2023-09-06T21:03:06.428Z,70.10
2023-09-06T21:05:34.666Z,70.40
2023-09-06T21:08:04.609Z,70.50
2023-09-06T21:10:32.954Z,70.40
2023-09-06T21:13:04.560Z,70.30
2023-09-06T21:15:33.021Z,70.60
2023-09-06T21:18:02.451Z,70.90
2023-09-06T21:20:30.707Z,70.50
2023-09-06T21:22:58.890Z,70.80
2023-09-06T21:25:28.485Z,70.80
2023-09-06T21:27:56.837Z,70.90
2023-09-06T21:30:25.040Z,71.30
2023-09-06T21:32:53.253Z,71.30
2023-09-06T21:35:21.558Z,71.10
2023-09-06T21:37:49.748Z,71.20
2023-09-06T21:40:18.078Z,71.40
2023-09-06T21:42:47.909Z,71.50
2023-09-06T21:45:16.474Z,71.60
2023-09-06T21:47:44.634Z,71.60
2023-09-06T21:50:12.903Z,71.50
2023-09-06T21:52:41.128Z,71.40
2023-09-06T21:55:10.752Z,71.50
2023-09-06T21:57:38.964Z,71.40
2023-09-06T22:00:11.958Z,71.30
2023-09-06T22:02:59.427Z,71.30
2023-09-06T22:05:46.447Z,71.80
2023-09-06T22:08:33.824Z,72.10
2023-09-06T22:11:20.520Z,72.00
2023-09-06T22:14:07.047Z,72.70
2023-09-06T22:16:36.944Z,72.90
2023-09-06T22:19:05.399Z,73.20
2023-09-06T22:21:33.621Z,73.10
2023-09-06T22:24:01.782Z,73.70
2023-09-06T22:26:30.080Z,73.70
2023-09-06T22:29:01.547Z,73.80
2023-09-06T22:31:30.084Z,73.70
2023-09-06T22:34:00.169Z,73.50
2023-09-06T22:36:29.664Z,73.60
2023-09-06T22:38:57.792Z,73.90
2023-09-06T22:41:25.941Z,73.80
2023-09-06T22:43:54.104Z,74.30
2023-09-06T22:46:25.649Z,74.00
2023-09-06T22:48:55.716Z,74.20
2023-09-06T22:51:25.508Z,74.20
2023-09-06T22:53:53.673Z,74.20
2023-09-06T22:56:21.846Z,74.10
2023-09-06T22:58:50.723Z,73.90
2023-09-06T23:01:18.994Z,73.60
2023-09-06T23:03:47.830Z,73.70
2023-09-06T23:06:18.069Z,73.40
2023-09-06T23:08:47.606Z,73.80
2023-09-06T23:11:16.855Z,73.80
2023-09-06T23:13:45.383Z,74.30
2023-09-06T23:16:17.203Z,74.60
2023-09-06T23:18:47.015Z,74.60
2023-09-06T23:21:18.653Z,74.50
2023-09-06T23:23:49.595Z,74.40
2023-09-06T23:26:21.343Z,74.60
2023-09-06T23:28:49.750Z,74.50
2023-09-06T23:31:21.074Z,74.50
2023-09-06T23:33:51.144Z,74.50
2023-09-06T23:36:20.235Z,74.40
2023-09-06T23:38:50.437Z,74.40
2023-09-06T23:41:19.176Z,74.30
2023-09-06T23:43:48.368Z,74.40
2023-09-06T23:46:18.905Z,74.30
2023-09-06T23:48:47.104Z,74.00
2023-09-06T23:51:15.257Z,74.30
2023-09-06T23:53:43.632Z,74.10
2023-09-06T23:56:13.324Z,74.10
2023-09-06T23:58:41.550Z,74.40
